Terminal Aerodrome Forecast
Issued by NWS Grand Junction, CO

Home | Current Version | Previous Version | Text Only | Print | Product List | Glossary On
Versions: 1 2 3 4 5 6 7 8 9 10 11 12 13 14 15 16 17 18 19 20 21 22 23 24 25 26 27 28 29 30 31 32 33 34 35 36 37
000
FTUS45 KGJT 012322
TAFGJT
TAF
KGJT 012322Z 0200/0224 04012KT P6SM VCTS SCT080CB BKN120
      TEMPO 0200/0201 -SHRA BKN080
     FM020200 14007KT P6SM SCT120 BKN200
     FM020400 10007KT P6SM FEW120 SCT200
     FM021400 13007KT P6SM SKC
     FM022000 25008KT P6SM SCT120=

USA.gov is the U.S. government's official web portal to all federal, state and local government web resources and services.